Time;durP1;ratioP1;P1;durP2;ratioP2;P2;SDS_P1;SDS_P2;PMS_P1;PMS_P2;Temp;Humidity;BMP_temperature;BMP_pressure;BME280_temperature;BME280_humidity;BME280_pressure;Samples;Min_cycle;Max_cycle;Signal;HPM_P1;HPM_P2
2022/03/18 00:01:19;;;;;;;15.87;8.60;;;;;;;3.50;95.75;102527.13;5027234;28;20322;-81
2022/03/18 00:03:45;;;;;;;13.43;8.73;;;;;;;3.43;95.93;102536.31;5037856;28;20734;-80
2022/03/18 00:06:16;;;;;;;11.80;8.30;;;;;;;3.41;96.09;102535.38;5038852;28;20700;-81
2022/03/18 00:08:45;;;;;;;14.50;9.17;;;;;;;3.29;95.84;102547.72;5038955;28;20726;-81
2022/03/18 00:11:14;;;;;;;10.27;7.93;;;;;;;3.29;95.73;102552.88;5038544;28;20234;-81
2022/03/18 00:13:40;;;;;;;9.50;8.40;;;;;;;3.10;95.38;102554.63;5038178;28;20206;-81
2022/03/18 00:16:07;;;;;;;13.43;7.90;;;;;;;3.13;96.12;102549.63;5039160;28;20580;-80
2022/03/18 00:18:33;;;;;;;13.17;7.83;;;;;;;3.18;95.20;102562.72;5038689;28;20214;-81
2022/03/18 00:20:59;;;;;;;14.67;8.63;;;;;;;3.21;95.96;102546.47;5038398;28;20218;-81
2022/03/18 00:23:28;;;;;;;10.63;8.33;;;;;;;3.29;95.74;102539.97;5038394;28;20206;-81
2022/03/18 00:25:56;;;;;;;12.63;8.47;;;;;;;3.38;95.15;102551.59;5038349;28;20301;-81
2022/03/18 00:28:22;;;;;;;10.87;7.93;;;;;;;3.39;94.50;102578.31;5038402;28;20228;-81
2022/03/18 00:30:49;;;;;;;14.07;8.20;;;;;;;3.25;94.39;102589.69;5028832;28;20249;-81
2022/03/18 00:33:16;;;;;;;15.23;8.37;;;;;;;3.26;94.43;102594.03;5035386;28;20199;-80
2022/03/18 00:35:42;;;;;;;18.03;9.03;;;;;;;3.16;94.62;102590.16;5038066;28;20235;-81
2022/03/18 00:38:09;;;;;;;12.93;7.33;;;;;;;3.03;94.20;102587.81;5037972;28;20201;-81
2022/03/18 00:40:35;;;;;;;14.13;7.97;;;;;;;2.88;94.41;102598.31;5037989;28;20209;-81
2022/03/18 00:43:03;;;;;;;11.20;7.37;;;;;;;2.86;95.33;102576.72;5037193;28;20263;-81
2022/03/18 00:45:30;;;;;;;13.50;8.57;;;;;;;2.77;96.19;102566.81;5037380;28;20619;-80
2022/03/18 00:53:26;;;;;;;10.73;6.70;;;;;;;3.01;95.37;102553.31;5037036;28;20219;-81
2022/03/18 00:55:53;;;;;;;18.03;6.87;;;;;;;3.02;94.55;102596.38;5036755;28;20225;-81
2022/03/18 00:58:21;;;;;;;8.77;6.73;;;;;;;2.97;93.54;102627.09;5037192;28;20214;-81
2022/03/18 01:00:48;;;;;;;12.50;7.40;;;;;;;2.91;93.93;102625.09;5027194;28;20234;-81
2022/03/18 01:03:15;;;;;;;9.90;6.87;;;;;;;2.78;94.71;102615.03;5032789;28;20210;-81
2022/03/18 01:05:42;;;;;;;9.13;6.63;;;;;;;2.73;94.62;102612.22;5036310;28;20218;-81
2022/03/18 01:08:08;;;;;;;11.00;6.90;;;;;;;2.77;95.80;102601.25;5036165;28;20231;-82
2022/03/18 01:10:36;;;;;;;14.90;7.03;;;;;;;2.72;96.86;102555.44;5039148;28;20596;-79
2022/03/18 01:13:02;;;;;;;10.37;6.87;;;;;;;2.72;97.43;102542.53;5045517;28;20273;-80
2022/03/18 01:15:31;;;;;;;20.47;7.63;;;;;;;2.55;97.28;102536.56;5040081;28;20211;-81
2022/03/18 01:17:57;;;;;;;11.27;5.90;;;;;;;2.47;96.88;102553.38;5037341;28;20264;-81
2022/03/18 01:20:24;;;;;;;8.53;6.33;;;;;;;2.32;97.12;102564.69;5036747;28;20675;-81
2022/03/18 01:22:50;;;;;;;20.70;8.53;;;;;;;2.22;97.20;102552.19;5037210;28;20213;-81
2022/03/18 01:25:17;;;;;;;13.23;8.90;;;;;;;2.11;99.27;102531.00;5037399;28;20206;-80
2022/03/18 01:27:43;;;;;;;15.83;10.70;;;;;;;2.05;99.92;102507.53;5036205;28;20243;-80
2022/03/18 01:30:11;;;;;;;13.33;9.63;;;;;;;2.05;100.00;102488.63;5030697;28;20228;-80
2022/03/18 01:32:39;;;;;;;12.27;8.27;;;;;;;2.13;100.00;102483.03;5027956;28;20205;-81
2022/03/18 01:35:05;;;;;;;11.80;7.73;;;;;;;2.17;99.84;102490.09;5035365;28;20620;-82
2022/03/18 01:37:32;;;;;;;9.60;8.60;;;;;;;2.25;99.41;102493.03;5035894;28;20226;-80
2022/03/18 01:39:59;;;;;;;12.50;8.73;;;;;;;2.19;99.71;102501.34;5036899;28;20211;-81
2022/03/18 01:42:25;;;;;;;11.07;8.80;;;;;;;2.01;99.95;102490.16;5035586;28;20221;-81
2022/03/18 01:44:51;;;;;;;9.87;7.87;;;;;;;1.99;100.00;102482.34;5036250;28;20204;-80
2022/03/18 01:47:18;;;;;;;15.63;7.83;;;;;;;1.97;100.00;102488.25;5036271;28;20288;-81
2022/03/18 01:49:46;;;;;;;14.03;8.67;;;;;;;2.09;99.80;102499.16;5035937;28;20240;-80
2022/03/18 01:52:12;;;;;;;10.97;8.97;;;;;;;2.25;99.69;102499.91;5035820;28;20216;-81
2022/03/18 01:54:47;;;;;;;12.87;9.20;;;;;;;2.23;99.71;102507.53;5035654;28;20559;-81
2022/03/18 01:57:15;;;;;;;14.43;7.83;;;;;;;2.17;98.40;102510.69;5034808;28;20317;-80
2022/03/18 01:59:42;;;;;;;11.13;7.57;;;;;;;2.19;98.66;102536.56;5030802;28;20201;-79
2022/03/18 02:02:09;;;;;;;12.27;9.07;;;;;;;2.26;99.20;102527.41;5026900;28;20201;-81
2022/03/18 02:04:36;;;;;;;11.53;8.87;;;;;;;2.31;100.00;102515.66;5035671;28;20300;-81
2022/03/18 02:07:05;;;;;;;15.47;10.10;;;;;;;2.30;100.00;102511.28;5035693;28;20358;-78
2022/03/18 02:09:32;;;;;;;16.07;9.53;;;;;;;2.33;100.00;102504.59;5036414;28;20291;-81
2022/03/18 02:11:59;;;;;;;12.90;8.40;;;;;;;2.42;100.00;102511.91;5036312;28;20212;-82
2022/03/18 02:14:33;;;;;;;10.50;7.80;;;;;;;2.52;99.97;102515.81;5036008;28;20211;-80
2022/03/18 02:16:59;;;;;;;10.20;8.23;;;;;;;2.46;99.45;102534.44;5035693;28;20273;-80
2022/03/18 02:19:26;;;;;;;9.50;7.70;;;;;;;2.49;98.64;102546.59;5035356;28;20237;-81
2022/03/18 02:21:55;;;;;;;13.23;7.83;;;;;;;2.59;97.91;102561.69;5035748;28;20252;-80
2022/03/18 02:24:23;;;;;;;7.90;7.10;;;;;;;2.53;97.51;102589.75;5035451;28;20208;-81
2022/03/18 02:26:50;;;;;;;15.23;7.30;;;;;;;2.54;96.49;102604.41;5035568;28;20230;-80
2022/03/18 02:29:18;;;;;;;13.57;7.63;;;;;;;2.62;96.69;102620.22;5030684;28;20652;-80
2022/03/18 02:31:45;;;;;;;9.70;7.43;;;;;;;2.58;95.49;102633.00;5027778;28;20200;-80
2022/03/18 02:34:11;;;;;;;11.97;7.20;;;;;;;2.44;96.36;102631.44;5035180;28;20216;-80
2022/03/18 02:36:38;;;;;;;11.60;7.13;;;;;;;2.50;96.12;102629.16;5035645;28;20240;-79
2022/03/18 02:39:06;;;;;;;8.60;6.60;;;;;;;2.61;95.45;102646.84;5036063;28;20532;-81
2022/03/18 02:41:35;;;;;;;10.63;6.43;;;;;;;2.68;94.72;102659.22;5039951;28;20620;-80
2022/03/18 02:44:02;;;;;;;8.50;6.97;;;;;;;2.74;94.91;102675.00;5039604;28;20239;-81
2022/03/18 02:46:32;;;;;;;12.07;7.17;;;;;;;2.67;94.07;102697.00;5039885;28;20278;-80
2022/03/18 02:49:00;;;;;;;11.60;7.13;;;;;;;2.71;94.12;102709.25;5040057;28;20228;-80
2022/03/18 02:51:26;;;;;;;8.43;7.00;;;;;;;2.74;93.76;102717.16;5039635;28;20295;-80
2022/03/18 02:53:53;;;;;;;11.77;6.70;;;;;;;2.79;92.84;102727.69;5039249;28;20268;-81
2022/03/18 02:56:19;;;;;;;10.60;7.17;;;;;;;2.76;93.01;102741.31;5039119;28;20275;-80
2022/03/18 02:58:47;;;;;;;8.10;6.20;;;;;;;2.83;92.85;102742.50;5038683;28;20208;-80
2022/03/18 03:01:13;;;;;;;14.70;7.57;;;;;;;2.90;92.93;102754.91;5027807;28;20201;-81
2022/03/18 03:03:39;;;;;;;15.37;8.17;;;;;;;2.90;93.31;102760.06;5038314;28;20199;-79
2022/03/18 03:08:49;;;;;;;11.23;7.07;;;;;;;2.95;92.88;102763.78;5038835;28;20289;-80
2022/03/18 03:11:16;;;;;;;10.40;7.00;;;;;;;3.01;92.43;102782.91;5038796;28;20232;-80
2022/03/18 03:13:43;;;;;;;8.73;5.80;;;;;;;2.96;91.92;102800.75;5039136;28;20210;-80
2022/03/18 03:16:11;;;;;;;7.33;6.37;;;;;;;2.88;90.95;102836.47;5039417;28;20225;-80
2022/03/18 03:18:38;;;;;;;6.43;5.73;;;;;;;2.87;90.52;102845.00;5046473;28;20675;-80
2022/03/18 03:21:04;;;;;;;9.10;6.40;;;;;;;2.91;89.80;102856.38;5052541;28;20213;-81
2022/03/18 03:23:30;;;;;;;8.10;5.70;;;;;;;2.92;89.48;102863.31;5052249;28;20643;-80
2022/03/18 03:25:57;;;;;;;11.20;6.07;;;;;;;2.95;89.44;102878.94;5051257;28;20240;-81
2022/03/18 03:28:24;;;;;;;8.83;6.50;;;;;;;2.93;89.19;102888.31;5052934;28;20190;-81
2022/03/18 03:30:50;;;;;;;8.80;7.73;;;;;;;2.70;90.57;102863.91;5040997;28;20226;-80
2022/03/18 03:33:18;;;;;;;17.70;9.07;;;;;;;2.50;92.27;102832.81;5036868;28;20738;-81
2022/03/18 03:35:45;;;;;;;14.70;8.90;;;;;;;2.39;93.13;102801.28;5039603;28;20272;-81
2022/03/18 03:38:14;;;;;;;9.63;8.60;;;;;;;2.54;93.28;102792.59;5039593;28;20214;-81
2022/03/18 03:40:41;;;;;;;11.07;7.83;;;;;;;2.65;92.99;102794.03;5039394;28;20248;-80
2022/03/18 03:43:08;;;;;;;13.87;8.40;;;;;;;2.68;92.95;102790.75;5039804;28;20231;-81
2022/03/18 03:45:35;;;;;;;9.80;7.47;;;;;;;2.75;93.07;102806.56;5038804;28;20210;-81
2022/03/18 03:48:01;;;;;;;7.57;6.80;;;;;;;2.81;92.38;102811.16;5039151;28;20206;-80
2022/03/18 03:50:29;;;;;;;10.87;6.17;;;;;;;2.85;92.39;102831.16;5038624;28;20222;-81
2022/03/18 03:52:55;;;;;;;6.50;5.87;;;;;;;2.89;91.63;102850.25;5037601;28;20691;-81
2022/03/18 03:55:21;;;;;;;13.33;7.97;;;;;;;2.93;91.51;102858.25;5038408;28;20210;-81
2022/03/18 03:57:48;;;;;;;10.37;8.70;;;;;;;2.70;92.38;102851.00;5039084;28;20702;-81
2022/03/18 04:00:15;;;;;;;14.10;8.23;;;;;;;2.47;92.53;102842.94;5033650;28;20301;-80
2022/03/18 04:02:43;;;;;;;18.37;9.43;;;;;;;2.51;93.13;102838.84;5022969;28;20260;-81
2022/03/18 04:05:10;;;;;;;9.93;7.93;;;;;;;2.60;93.22;102834.16;5038247;28;20214;-81
2022/03/18 04:07:40;;;;;;;12.13;8.57;;;;;;;2.67;93.72;102835.38;5038579;28;20702;-80
2022/03/18 04:10:09;;;;;;;14.13;8.37;;;;;;;2.42;93.52;102840.91;5039043;28;20229;-81
2022/03/18 04:12:36;;;;;;;10.80;8.63;;;;;;;2.30;93.50;102831.75;5038918;28;20223;-81
2022/03/18 04:15:03;;;;;;;17.00;10.60;;;;;;;2.31;94.24;102823.19;5039271;28;20738;-80
2022/03/18 04:17:37;;;;;;;16.97;10.27;;;;;;;2.27;94.97;102826.41;5039000;28;20229;-81
2022/03/18 04:20:05;;;;;;;14.97;11.30;;;;;;;2.36;94.83;102811.44;5039270;28;20232;-81
2022/03/18 04:22:31;;;;;;;15.83;12.63;;;;;;;2.50;95.33;102809.59;5039341;28;20256;-81
2022/03/18 04:24:59;;;;;;;10.80;9.80;;;;;;;2.46;95.24;102796.44;5038734;28;20207;-81
2022/03/18 04:27:25;;;;;;;11.83;9.30;;;;;;;2.38;95.11;102807.25;5038227;28;20651;-80
2022/03/18 04:29:53;;;;;;;11.27;10.13;;;;;;;2.38;94.45;102812.41;5033322;28;20866;-81
2022/03/18 04:32:19;;;;;;;18.53;9.10;;;;;;;2.41;94.48;102823.69;5029623;28;20276;-81
2022/03/18 04:34:46;;;;;;;11.67;9.77;;;;;;;2.37;94.50;102838.97;5038072;28;20216;-81
2022/03/18 04:37:12;;;;;;;16.27;9.67;;;;;;;2.39;94.13;102832.22;5038269;28;20228;-81
2022/03/18 04:39:39;;;;;;;10.63;9.60;;;;;;;2.36;94.67;102838.91;5038046;28;20258;-81
2022/03/18 04:42:07;;;;;;;12.37;9.10;;;;;;;2.45;94.54;102838.50;5038707;28;20203;-80
2022/03/18 04:44:34;;;;;;;9.43;8.53;;;;;;;2.19;93.07;102869.78;5037872;28;20273;-80
2022/03/18 04:47:00;;;;;;;11.90;10.67;;;;;;;1.96;94.33;102862.50;5038362;28;20232;-81
2022/03/18 04:49:27;;;;;;;13.90;10.07;;;;;;;1.91;93.72;102845.91;5037663;28;20240;-81
2022/03/18 04:51:53;;;;;;;11.57;9.30;;;;;;;2.04;94.27;102844.88;5038017;28;20214;-81
2022/03/18 04:54:20;;;;;;;11.80;9.93;;;;;;;2.15;94.05;102856.66;5038132;28;20209;-82
2022/03/18 04:59:31;;;;;;;22.57;10.60;;;;;;;2.32;92.80;102870.47;5032449;28;20292;-81
2022/03/18 05:01:57;;;;;;;11.00;9.93;;;;;;;2.34;92.31;102889.50;5028800;28;20204;-81
2022/03/18 05:04:24;;;;;;;13.30;9.47;;;;;;;2.41;92.37;102901.91;5036903;28;20208;-82
2022/03/18 05:06:50;;;;;;;10.10;9.10;;;;;;;2.40;91.11;102931.06;5037877;28;20261;-81
2022/03/18 05:09:16;;;;;;;10.60;9.63;;;;;;;2.38;90.13;102964.47;5037564;28;20306;-80
2022/03/18 05:11:43;;;;;;;12.47;8.50;;;;;;;2.38;90.57;102974.78;5037186;28;20216;-81
2022/03/18 05:14:09;;;;;;;9.13;8.10;;;;;;;2.41;89.97;102979.22;5036871;28;20772;-81
2022/03/18 05:16:37;;;;;;;10.27;8.30;;;;;;;2.42;90.60;102987.84;5036511;28;20621;-81
2022/03/18 05:19:03;;;;;;;10.83;8.43;;;;;;;2.45;90.33;102983.75;5036872;28;20209;-81
2022/03/18 05:21:29;;;;;;;9.60;7.67;;;;;;;2.46;90.38;102988.09;5037029;28;20205;-81
2022/03/18 05:23:56;;;;;;;9.87;7.77;;;;;;;2.47;89.17;103009.63;5036455;28;20211;-81
2022/03/18 05:26:22;;;;;;;13.97;8.37;;;;;;;2.38;89.56;103025.47;5035944;28;20299;-80
2022/03/18 05:28:48;;;;;;;12.70;9.37;;;;;;;2.40;89.50;103034.16;5036074;28;20205;-81
2022/03/18 05:31:15;;;;;;;12.97;8.93;;;;;;;2.28;91.16;103016.31;5025037;28;20224;-81
2022/03/18 05:33:43;;;;;;;11.90;9.10;;;;;;;2.18;91.77;102990.81;5037090;28;20206;-80
2022/03/18 05:36:09;;;;;;;10.00;9.03;;;;;;;2.03;91.24;102979.66;5035798;28;20233;-81
2022/03/18 05:38:35;;;;;;;16.20;10.40;;;;;;;2.10;92.49;102972.38;5035570;28;20683;-78
2022/03/18 05:41:02;;;;;;;15.07;8.97;;;;;;;2.15;92.24;102957.16;5036154;28;20278;-80
2022/03/18 05:43:28;;;;;;;10.40;9.33;;;;;;;2.22;92.94;102948.97;5035938;28;20253;-80
2022/03/18 05:45:55;;;;;;;12.33;9.10;;;;;;;2.32;92.65;102953.84;5035394;28;20233;-79
2022/03/18 05:48:21;;;;;;;15.23;8.80;;;;;;;2.29;92.18;102957.94;5035395;28;20205;-81
2022/03/18 05:50:49;;;;;;;17.47;7.90;;;;;;;2.34;92.18;102961.66;5035746;28;20274;-81
2022/03/18 05:53:16;;;;;;;10.77;7.57;;;;;;;2.37;91.90;102973.00;5035633;28;20209;-81
2022/03/18 05:58:26;;;;;;;11.00;7.67;;;;;;;2.46;91.43;103005.25;5035185;28;20191;-80
2022/03/18 06:00:54;;;;;;;15.67;8.10;;;;;;;2.37;91.38;103013.38;5026291;28;20240;-80
2022/03/18 06:03:20;;;;;;;10.67;7.93;;;;;;;2.43;90.86;103018.84;5032185;28;20213;-80
2022/03/18 06:05:47;;;;;;;14.53;8.70;;;;;;;2.49;90.43;103032.09;5015784;28;20206;-80
2022/03/18 06:13:42;;;;;;;8.77;7.23;;;;;;;2.29;89.44;103082.50;5004101;28;20220;-80
2022/03/18 06:16:09;;;;;;;7.50;6.80;;;;;;;2.21;88.66;103083.75;5005038;28;20222;-78
2022/03/18 06:18:35;;;;;;;12.00;8.07;;;;;;;2.15;88.63;103098.88;5005092;28;20204;-78
2022/03/18 06:21:01;;;;;;;8.33;7.00;;;;;;;2.12;89.12;103114.13;5003802;28;20617;-79
2022/03/18 06:23:29;;;;;;;8.87;7.83;;;;;;;2.17;88.59;103116.19;5004785;28;20199;-80
2022/03/18 06:25:56;;;;;;;9.37;7.10;;;;;;;2.14;89.68;103103.13;5004576;28;20237;-79
2022/03/18 06:28:23;;;;;;;7.33;6.43;;;;;;;2.12;89.53;103101.25;5003527;28;20205;-80
2022/03/18 06:30:49;;;;;;;15.00;7.90;;;;;;;2.07;88.58;103119.03;5010014;28;20295;-79
2022/03/18 06:33:16;;;;;;;7.43;6.60;;;;;;;2.04;89.10;103126.56;5007012;28;20260;-79
2022/03/18 06:35:42;;;;;;;12.17;6.37;;;;;;;2.03;89.08;103124.78;5005217;28;20201;-78
2022/03/18 06:38:09;;;;;;;12.27;7.27;;;;;;;2.02;89.81;103122.13;5004729;28;20197;-80
2022/03/18 06:40:36;;;;;;;9.77;6.93;;;;;;;2.00;90.05;103122.03;5004513;28;20235;-80
2022/03/18 06:43:03;;;;;;;10.20;7.33;;;;;;;1.97;89.57;103101.25;5006593;28;20200;-80
2022/03/18 06:45:29;;;;;;;12.57;7.47;;;;;;;1.94;89.70;103098.47;5002661;28;20620;-81
2022/03/18 06:47:56;;;;;;;7.63;6.40;;;;;;;2.03;90.59;103101.59;5006802;28;20222;-80
2022/03/18 06:50:24;;;;;;;7.53;6.93;;;;;;;2.10;90.56;103106.34;5004997;28;20280;-80
2022/03/18 06:52:51;;;;;;;10.27;7.17;;;;;;;2.15;91.31;103101.44;5004395;28;20866;-79
2022/03/18 06:55:17;;;;;;;8.03;6.97;;;;;;;2.22;91.24;103103.59;5004590;28;20204;-80
2022/03/18 06:57:45;;;;;;;10.97;7.50;;;;;;;2.26;91.42;103094.31;5005413;28;20269;-81
2022/03/18 07:00:13;;;;;;;10.70;7.60;;;;;;;2.29;91.25;103072.19;5007288;28;20221;-79
2022/03/18 07:02:39;;;;;;;13.27;8.20;;;;;;;2.31;91.51;103080.03;5012590;28;20227;-80
2022/03/18 07:05:06;;;;;;;15.93;8.33;;;;;;;2.42;91.06;103094.44;5005043;28;20210;-80
2022/03/18 07:07:32;;;;;;;10.00;7.03;;;;;;;2.48;91.50;103096.44;5004484;28;20227;-81
2022/03/18 07:09:59;;;;;;;13.93;8.50;;;;;;;2.50;91.55;103094.88;5006528;28;20279;-78
2022/03/18 07:12:27;;;;;;;9.33;8.43;;;;;;;2.55;92.27;103089.16;5005978;28;20200;-80
2022/03/18 07:14:54;;;;;;;11.07;9.13;;;;;;;2.61;92.79;103082.56;5004059;28;20227;-80
2022/03/18 07:20:06;;;;;;;19.70;10.97;;;;;;;2.86;93.03;103066.78;5004974;28;20290;-81
2022/03/18 07:22:32;;;;;;;16.27;10.93;;;;;;;2.99;93.05;103069.22;5006849;28;20274;-81
2022/03/18 07:24:58;;;;;;;14.77;9.33;;;;;;;3.09;92.34;103078.34;5003841;28;20212;-81
2022/03/18 07:27:25;;;;;;;11.40;10.20;;;;;;;3.14;91.74;103095.88;5007110;28;20286;-79
2022/03/18 07:29:51;;;;;;;13.03;10.37;;;;;;;3.17;91.65;103111.53;5015369;28;20218;-80
2022/03/18 07:32:19;;;;;;;11.97;10.03;;;;;;;3.16;92.05;103103.69;5017032;28;20200;-81
2022/03/18 07:34:45;;;;;;;12.93;11.63;;;;;;;3.23;91.64;103100.66;5007799;28;20199;-81
2022/03/18 07:37:11;;;;;;;14.20;11.60;;;;;;;3.30;92.43;103096.69;5009305;28;21576;-81
2022/03/18 07:39:38;;;;;;;12.33;11.03;;;;;;;3.36;92.24;103097.03;5007396;28;20247;-84
2022/03/18 07:42:05;;;;;;;17.97;12.83;;;;;;;3.42;92.54;103087.03;5009013;28;20226;-81
2022/03/18 07:44:31;;;;;;;16.33;12.60;;;;;;;3.53;92.25;103103.97;5009602;28;20554;-81
2022/03/18 07:46:58;;;;;;;13.93;12.20;;;;;;;3.62;91.88;103108.72;5008153;28;20638;-83
2022/03/18 07:49:25;;;;;;;17.50;12.13;;;;;;;3.62;92.96;103098.41;5009772;28;20249;-81
2022/03/18 07:51:52;;;;;;;12.40;10.70;;;;;;;3.37;94.70;103047.19;5018411;28;20644;-81
2022/03/18 07:54:18;;;;;;;12.27;10.63;;;;;;;3.25;94.56;103033.59;5017793;28;20213;-81
2022/03/18 07:56:45;;;;;;;14.40;12.90;;;;;;;3.22;95.69;103005.06;5017354;28;20231;-81
2022/03/18 07:59:11;;;;;;;14.13;12.50;;;;;;;3.15;97.25;102978.94;5018312;28;20217;-82
2022/03/18 08:01:40;;;;;;;15.77;12.70;;;;;;;3.10;97.90;102967.47;5028556;28;20199;-81
2022/03/18 08:04:06;;;;;;;17.30;13.87;;;;;;;3.09;98.33;102950.25;5038503;28;20240;-81
2022/03/18 08:06:34;;;;;;;19.17;12.00;;;;;;;3.14;98.12;102947.88;5029708;28;20315;-81
2022/03/18 08:09:00;;;;;;;19.10;12.63;;;;;;;3.14;99.06;102941.03;5018215;28;20743;-82
2022/03/18 08:11:27;;;;;;;22.87;14.67;;;;;;;3.17;99.90;102924.81;5014526;28;20702;-82
2022/03/18 08:13:54;;;;;;;19.20;14.57;;;;;;;3.20;100.00;102921.50;5007542;28;20672;-81
2022/03/18 08:16:22;;;;;;;16.80;13.20;;;;;;;3.21;100.00;102923.28;5006669;28;20732;-82
2022/03/18 08:18:48;;;;;;;15.23;12.37;;;;;;;3.19;99.91;102918.03;5017848;28;20212;-81
2022/03/18 08:21:15;;;;;;;18.00;11.40;;;;;;;3.18;100.00;102936.91;5018020;28;20207;-81
2022/03/18 08:23:44;;;;;;;13.60;9.97;;;;;;;3.20;100.00;102944.75;5017255;28;20210;-80
2022/03/18 08:26:10;;;;;;;22.50;11.00;;;;;;;3.18;100.00;102940.38;5017120;28;20284;-81
2022/03/18 08:28:37;;;;;;;14.63;11.03;;;;;;;3.13;100.00;102931.53;5017123;28;20213;-81
2022/03/18 08:31:03;;;;;;;13.43;11.37;;;;;;;3.23;100.00;102937.13;5025444;28;20709;-82
2022/03/18 08:33:31;;;;;;;18.93;11.77;;;;;;;3.29;99.81;102943.53;5035671;28;20209;-81
2022/03/18 08:35:57;;;;;;;16.13;10.87;;;;;;;3.45;99.82;102942.63;5036513;28;20233;-82
2022/03/18 08:38:23;;;;;;;12.80;10.93;;;;;;;3.58;100.00;102936.34;5036585;28;20213;-82
2022/03/18 08:40:51;;;;;;;17.00;10.33;;;;;;;3.72;100.00;102931.88;5036986;28;20854;-79
2022/03/18 08:43:17;;;;;;;15.27;9.63;;;;;;;3.89;99.66;102932.72;5036904;28;20680;-83
2022/03/18 08:45:45;;;;;;;12.23;10.43;;;;;;;4.05;99.32;102949.84;5036761;28;20210;-83
2022/03/18 08:48:11;;;;;;;12.47;8.73;;;;;;;4.16;97.98;102971.91;5036540;28;20227;-80
2022/03/18 08:50:37;;;;;;;12.10;8.43;;;;;;;4.30;97.10;102994.16;5036590;28;20222;-81
2022/03/18 08:53:09;;;;;;;13.27;7.83;;;;;;;4.47;96.42;103017.34;5036918;28;20206;-80
2022/03/18 08:55:36;;;;;;;16.57;7.47;;;;;;;4.56;95.96;103043.66;5035567;28;20213;-80
2022/03/18 08:58:04;;;;;;;14.03;7.40;;;;;;;4.73;95.38;103060.84;5036876;28;20265;-82
2022/03/18 09:00:31;;;;;;;14.80;8.80;;;;;;;4.86;95.47;103082.16;5029494;28;20213;-82
2022/03/18 09:02:58;;;;;;;13.20;8.47;;;;;;;4.98;95.07;103093.97;5031385;28;20223;-81
2022/03/18 09:05:24;;;;;;;13.23;7.90;;;;;;;5.06;94.75;103103.81;5035998;28;20260;-81
2022/03/18 09:07:51;;;;;;;9.20;8.13;;;;;;;5.08;93.98;103139.28;5037519;28;20225;-80
2022/03/18 09:10:17;;;;;;;12.13;7.97;;;;;;;5.16;93.49;103152.59;5043719;28;20210;-81
2022/03/18 09:12:44;;;;;;;16.17;7.83;;;;;;;5.23;93.17;103171.91;5041132;28;20228;-81
2022/03/18 09:15:12;;;;;;;15.80;8.17;;;;;;;5.28;92.61;103176.47;5040155;28;20206;-81
2022/03/18 09:17:39;;;;;;;15.37;7.80;;;;;;;5.32;92.46;103186.16;5039487;28;20428;-80
2022/03/18 09:20:06;;;;;;;10.70;7.23;;;;;;;5.45;92.71;103181.56;5041451;28;20206;-80
2022/03/18 09:22:33;;;;;;;8.77;6.10;;;;;;;5.54;91.39;103211.38;5042055;28;20207;-80
2022/03/18 09:24:59;;;;;;;14.17;7.07;;;;;;;5.50;91.70;103231.88;5036299;28;20206;-81
2022/03/18 09:27:25;;;;;;;11.70;6.13;;;;;;;5.55;91.54;103231.28;5036237;28;20234;-81
2022/03/18 09:29:52;;;;;;;11.47;6.17;;;;;;;5.58;90.94;103254.75;5032244;28;20202;-81
2022/03/18 09:32:20;;;;;;;13.33;6.93;;;;;;;5.64;89.81;103271.41;5028091;28;20264;-80
2022/03/18 09:34:46;;;;;;;13.00;7.07;;;;;;;5.73;90.00;103277.03;5035248;28;20214;-81
2022/03/18 09:37:12;;;;;;;8.43;4.27;;;;;;;5.80;89.40;103297.22;5036030;28;20226;-82
2022/03/18 09:39:39;;;;;;;11.03;3.37;;;;;;;5.82;85.50;103377.66;5036991;28;20206;-83
2022/03/18 09:42:06;;;;;;;10.80;3.80;;;;;;;5.88;85.18;103409.94;5036786;28;20209;-81
2022/03/18 09:44:34;;;;;;;11.47;4.30;;;;;;;6.00;85.32;103435.59;5036455;28;20263;-81
2022/03/18 09:47:00;;;;;;;7.40;3.60;;;;;;;6.11;84.10;103456.88;5036050;28;20226;-81
2022/03/18 09:49:29;;;;;;;8.40;3.60;;;;;;;6.14;81.48;103511.47;5034295;28;20206;-80
2022/03/18 09:51:56;;;;;;;8.60;4.10;;;;;;;6.14;81.82;103545.19;5035340;28;20226;-81
2022/03/18 09:54:23;;;;;;;4.63;3.83;;;;;;;6.24;83.01;103510.22;5023094;28;20198;-80
2022/03/18 09:56:49;;;;;;;8.00;3.67;;;;;;;6.24;83.33;103511.09;5004388;28;20706;-81
2022/03/18 09:59:16;;;;;;;12.07;4.40;;;;;;;6.30;83.71;103508.81;5007272;28;20210;-80
2022/03/18 10:01:42;;;;;;;7.53;3.00;;;;;;;6.32;80.34;103569.47;5027254;28;20397;-81
2022/03/18 10:04:11;;;;;;;7.27;3.70;;;;;;;6.42;79.66;103625.28;5013838;28;20206;-81
2022/03/18 10:06:42;;;;;;;8.13;3.33;;;;;;;6.52;78.43;103645.69;5004780;28;20230;-81
2022/03/18 10:09:09;;;;;;;7.23;3.43;;;;;;;6.57;78.64;103659.75;5002401;28;20693;-80
2022/03/18 10:11:37;;;;;;;12.83;4.00;;;;;;;6.67;78.77;103660.22;4996596;28;20224;-81
2022/03/18 10:14:06;;;;;;;10.87;3.90;;;;;;;6.71;78.67;103652.66;4996357;28;20302;-81
2022/03/18 10:16:36;;;;;;;8.03;3.70;;;;;;;6.78;77.87;103677.22;4996123;28;20231;-81
2022/03/18 10:19:05;;;;;;;7.57;3.93;;;;;;;6.83;78.61;103688.72;4996090;28;20251;-81
2022/03/18 10:21:31;;;;;;;7.00;4.17;;;;;;;6.88;77.57;103692.44;4995751;28;20257;-81
2022/03/18 10:24:10;;;;;;;12.27;4.03;;;;;;;6.92;78.69;103689.16;4996015;28;20697;-81
2022/03/18 10:26:38;;;;;;;9.97;3.87;;;;;;;6.96;78.29;103685.91;4995930;28;20261;-81
2022/03/18 10:29:11;;;;;;;8.47;4.80;;;;;;;7.01;77.35;103708.59;4999200;28;20277;-80
2022/03/18 10:31:37;;;;;;;8.67;3.77;;;;;;;7.01;78.43;103683.53;5027141;28;20226;-81
2022/03/18 10:37:07;;;;;;;6.97;4.43;;;;;;;7.18;78.59;103673.94;5013640;28;20243;-80
2022/03/18 10:39:38;;;;;;;7.33;4.07;;;;;;;7.22;77.64;103693.19;5034902;28;20202;-80
2022/03/18 10:42:06;;;;;;;6.80;3.40;;;;;;;7.30;77.11;103710.03;5035157;28;20201;-80
2022/03/18 10:44:44;;;;;;;6.07;3.03;;;;;;;7.37;76.75;103738.06;5034778;28;20906;-82
2022/03/18 10:47:26;;;;;;;8.30;3.87;;;;;;;7.39;76.16;103766.72;5035115;28;20898;-81
2022/03/18 10:49:53;;;;;;;6.23;3.77;;;;;;;7.43;76.06;103766.94;5035301;28;20581;-81
2022/03/18 10:52:23;;;;;;;6.30;3.20;;;;;;;7.45;76.86;103759.22;5034517;28;20234;-81
2022/03/18 10:54:51;;;;;;;5.40;4.07;;;;;;;7.49;76.04;103761.13;5038395;28;20214;-81
2022/03/18 10:57:18;;;;;;;8.23;3.70;;;;;;;7.51;75.73;103785.50;5038446;28;20232;-82
2022/03/18 10:59:44;;;;;;;5.00;3.63;;;;;;;7.63;76.07;103770.50;5030421;28;20208;-81
2022/03/18 11:02:16;;;;;;;9.90;4.20;;;;;;;7.74;77.20;103740.66;5030159;28;20198;-80
2022/03/18 11:04:42;;;;;;;9.67;4.33;;;;;;;7.84;76.91;103748.91;5038719;28;20206;-81
2022/03/18 11:12:42;;;;;;;6.53;3.93;;;;;;;8.26;74.81;103801.97;5047582;28;20232;-81
2022/03/18 11:15:10;;;;;;;7.80;3.83;;;;;;;8.38;73.71;103814.66;5046810;28;20256;-80
2022/03/18 11:17:39;;;;;;;12.03;3.50;;;;;;;8.55;73.94;103846.69;5042092;28;20257;-80
2022/03/18 11:20:07;;;;;;;9.27;3.83;;;;;;;8.72;74.56;103835.31;5039614;28;20264;-81
2022/03/18 11:22:36;;;;;;;9.83;4.30;;;;;;;8.94;73.68;103838.84;5038261;28;20738;-80
2022/03/18 11:25:09;;;;;;;8.17;3.93;;;;;;;9.15;72.45;103855.38;5038899;28;20198;-79
2022/03/18 11:27:36;;;;;;;10.93;3.70;;;;;;;9.32;70.46;103912.56;5037762;28;20234;-81
2022/03/18 11:30:20;;;;;;;9.30;3.60;;;;;;;9.45;68.76;103968.72;5033979;28;20565;-81
2022/03/18 11:33:26;;;;;;;7.37;3.60;;;;;;;9.66;69.24;103981.78;5023307;28;20222;-78
2022/03/18 11:36:15;;;;;;;6.43;3.33;;;;;;;9.91;69.25;103966.31;5038206;28;20222;-80
2022/03/18 11:39:06;;;;;;;8.57;3.50;;;;;;;10.24;68.14;104009.38;5038662;28;20270;-81
2022/03/18 11:41:53;;;;;;;9.13;3.83;;;;;;;11.43;66.66;104015.59;5035685;28;20298;-79
2022/03/18 11:44:44;;;;;;;6.27;4.33;;;;;;;13.33;58.69;104226.25;5037511;28;20207;-78
2022/03/18 11:47:33;;;;;;;4.93;3.03;;;;;;;14.94;54.31;104403.41;5037415;28;20227;-77
2022/03/18 11:50:01;;;;;;;7.17;3.33;;;;;;;16.35;49.50;104517.53;5036199;28;20202;-80
2022/03/18 11:52:27;;;;;;;6.00;3.20;;;;;;;17.68;47.33;104576.53;5036753;28;20233;-78
2022/03/18 11:54:55;;;;;;;9.10;3.17;;;;;;;18.63;44.84;104631.00;5036224;28;20215;-80
2022/03/18 11:57:31;;;;;;;6.23;3.43;;;;;;;19.74;42.69;104673.91;5037448;28;20284;-80
2022/03/18 12:00:00;;;;;;;4.80;3.33;;;;;;;20.69;38.94;104778.28;5028315;28;20304;-80